sensor_id;sensor_type;location;lat;lon;timestamp;pressure;altitude;pressure_sealevel;temperature;humidity
62708;BME280;48769;51.624;5.886;2023-03-01T00:01:21;102914.50;;;0.69;69.92
62708;BME280;48769;51.624;5.886;2023-03-01T00:03:47;102918.69;;;0.63;69.86
62708;BME280;48769;51.624;5.886;2023-03-01T00:06:13;102922.88;;;0.56;69.46
62708;BME280;48769;51.624;5.886;2023-03-01T00:08:38;102919.34;;;0.54;69.81
62708;BME280;48769;51.624;5.886;2023-03-01T00:11:17;102921.00;;;0.51;70.27
62708;BME280;48769;51.624;5.886;2023-03-01T00:13:46;102917.44;;;0.47;70.27
62708;BME280;48769;51.624;5.886;2023-03-01T00:16:17;102924.31;;;0.45;70.04
62708;BME280;48769;51.624;5.886;2023-03-01T00:18:43;102923.38;;;0.41;70.10
62708;BME280;48769;51.624;5.886;2023-03-01T00:21:09;102919.94;;;0.42;69.80
62708;BME280;48769;51.624;5.886;2023-03-01T00:23:35;102922.56;;;0.44;69.65
62708;BME280;48769;51.624;5.886;2023-03-01T00:26:01;102916.44;;;0.42;69.68
62708;BME280;48769;51.624;5.886;2023-03-01T00:28:26;102918.97;;;0.39;70.00
62708;BME280;48769;51.624;5.886;2023-03-01T00:30:52;102918.06;;;0.37;70.07
62708;BME280;48769;51.624;5.886;2023-03-01T00:33:18;102918.94;;;0.36;70.49
62708;BME280;48769;51.624;5.886;2023-03-01T00:35:44;102915.41;;;0.34;71.38
62708;BME280;48769;51.624;5.886;2023-03-01T00:38:09;102910.19;;;0.34;70.85
62708;BME280;48769;51.624;5.886;2023-03-01T00:40:36;102909.28;;;0.32;71.14
62708;BME280;48769;51.624;5.886;2023-03-01T00:43:02;102899.66;;;0.28;71.53
62708;BME280;48769;51.624;5.886;2023-03-01T00:45:27;102894.44;;;0.28;71.72
62708;BME280;48769;51.624;5.886;2023-03-01T00:47:53;102896.13;;;0.26;71.73
62708;BME280;48769;51.624;5.886;2023-03-01T00:50:20;102892.56;;;0.22;71.77
62708;BME280;48769;51.624;5.886;2023-03-01T00:52:45;102889.09;;;0.21;71.47
62708;BME280;48769;51.624;5.886;2023-03-01T00:55:11;102891.69;;;0.21;72.14
62708;BME280;48769;51.624;5.886;2023-03-01T00:57:37;102888.16;;;0.18;72.06
62708;BME280;48769;51.624;5.886;2023-03-01T01:00:04;102884.69;;;0.19;71.86
62708;BME280;48769;51.624;5.886;2023-03-01T01:02:31;102884.63;;;0.16;72.28
62708;BME280;48769;51.624;5.886;2023-03-01T01:04:57;102887.94;;;0.09;72.76
62708;BME280;48769;51.624;5.886;2023-03-01T01:07:22;102893.78;;;0.00;73.10
62708;BME280;48769;51.624;5.886;2023-03-01T01:09:48;102891.13;;;-0.03;72.88
62708;BME280;48769;51.624;5.886;2023-03-01T01:12:13;102885.78;;;-0.08;73.32
62708;BME280;48769;51.624;5.886;2023-03-01T01:14:39;102885.78;;;-0.08;74.14
62708;BME280;48769;51.624;5.886;2023-03-01T01:17:04;102879.72;;;-0.08;74.18
62708;BME280;48769;51.624;5.886;2023-03-01T01:19:30;102871.06;;;-0.07;74.33
62708;BME280;48769;51.624;5.886;2023-03-01T01:21:55;102867.66;;;-0.06;74.03
62708;BME280;48769;51.624;5.886;2023-03-01T01:24:21;102862.38;;;-0.09;74.44
62708;BME280;48769;51.624;5.886;2023-03-01T01:26:46;102867.56;;;-0.09;74.35
62708;BME280;48769;51.624;5.886;2023-03-01T01:29:12;102859.78;;;-0.09;74.67
62708;BME280;48769;51.624;5.886;2023-03-01T01:31:39;102865.88;;;-0.07;74.70
62708;BME280;48769;51.624;5.886;2023-03-01T01:34:06;102869.25;;;-0.11;75.21
62708;BME280;48769;51.624;5.886;2023-03-01T01:36:33;102857.94;;;-0.13;75.06
62708;BME280;48769;51.624;5.886;2023-03-01T01:38:59;102853.47;;;-0.19;75.34
62708;BME280;48769;51.624;5.886;2023-03-01T01:41:26;102852.47;;;-0.24;75.95
62708;BME280;48769;51.624;5.886;2023-03-01T01:44:11;102848.00;;;-0.30;76.20
62708;BME280;48769;51.624;5.886;2023-03-01T01:46:39;102839.22;;;-0.35;76.03
62708;BME280;48769;51.624;5.886;2023-03-01T01:49:14;102839.16;;;-0.36;76.33
62708;BME280;48769;51.624;5.886;2023-03-01T01:51:44;102831.38;;;-0.36;76.42
62708;BME280;48769;51.624;5.886;2023-03-01T01:54:23;102827.06;;;-0.36;76.68
62708;BME280;48769;51.624;5.886;2023-03-01T01:57:01;102823.47;;;-0.41;77.09
62708;BME280;48769;51.624;5.886;2023-03-01T01:59:30;102830.25;;;-0.46;77.02
62708;BME280;48769;51.624;5.886;2023-03-01T02:02:02;102834.31;;;-0.57;77.97
62708;BME280;48769;51.624;5.886;2023-03-01T02:04:29;102829.81;;;-0.64;78.06
62708;BME280;48769;51.624;5.886;2023-03-01T02:07:11;102837.50;;;-0.67;78.48
62708;BME280;48769;51.624;5.886;2023-03-01T02:09:38;102835.72;;;-0.68;78.71
62708;BME280;48769;51.624;5.886;2023-03-01T02:12:04;102832.25;;;-0.69;78.92
62708;BME280;48769;51.624;5.886;2023-03-01T02:14:29;102834.91;;;-0.67;78.42
62708;BME280;48769;51.624;5.886;2023-03-01T02:16:55;102841.06;;;-0.64;78.78
62708;BME280;48769;51.624;5.886;2023-03-01T02:22:30;102841.84;;;-0.66;78.35
62708;BME280;48769;51.624;5.886;2023-03-01T02:27:42;102836.50;;;-0.73;78.75
62708;BME280;48769;51.624;5.886;2023-03-01T02:30:14;102829.63;;;-0.71;78.10
62708;BME280;48769;51.624;5.886;2023-03-01T02:32:40;102832.16;;;-0.72;78.38
62708;BME280;48769;51.624;5.886;2023-03-01T02:35:09;102826.16;;;-0.71;77.98
62708;BME280;48769;51.624;5.886;2023-03-01T02:37:37;102826.03;;;-0.76;77.61
62708;BME280;48769;51.624;5.886;2023-03-01T02:40:09;102829.47;;;-0.77;77.67
62708;BME280;48769;51.624;5.886;2023-03-01T02:42:45;102822.53;;;-0.78;77.97
62708;BME280;48769;51.624;5.886;2023-03-01T02:45:12;102815.47;;;-0.82;77.29
62708;BME280;48769;51.624;5.886;2023-03-01T02:47:37;102819.94;;;-0.78;77.44
62708;BME280;48769;51.624;5.886;2023-03-01T02:50:13;102812.16;;;-0.78;77.73
62708;BME280;48769;51.624;5.886;2023-03-01T02:52:47;102806.78;;;-0.84;77.60
62708;BME280;48769;51.624;5.886;2023-03-01T02:55:18;102815.31;;;-0.88;77.95
62708;BME280;48769;51.624;5.886;2023-03-01T02:57:45;102822.19;;;-0.90;78.25
62708;BME280;48769;51.624;5.886;2023-03-01T03:00:14;102822.19;;;-0.90;78.59
62708;BME280;48769;51.624;5.886;2023-03-01T03:02:48;102830.81;;;-0.91;78.33
62708;BME280;48769;51.624;5.886;2023-03-01T03:05:19;102828.22;;;-0.91;78.54
62708;BME280;48769;51.624;5.886;2023-03-01T03:07:46;102823.94;;;-0.89;78.47
62708;BME280;48769;51.624;5.886;2023-03-01T03:10:22;102824.88;;;-0.87;78.47
62708;BME280;48769;51.624;5.886;2023-03-01T03:12:52;102819.63;;;-0.88;78.37
62708;BME280;48769;51.624;5.886;2023-03-01T03:15:18;102816.13;;;-0.90;78.15
62708;BME280;48769;51.624;5.886;2023-03-01T03:17:45;102820.38;;;-0.92;78.33
62708;BME280;48769;51.624;5.886;2023-03-01T03:20:13;102819.50;;;-0.93;78.26
62708;BME280;48769;51.624;5.886;2023-03-01T03:22:44;102817.66;;;-0.97;78.15
62708;BME280;48769;51.624;5.886;2023-03-01T03:25:09;102815.97;;;-0.95;78.25
62708;BME280;48769;51.624;5.886;2023-03-01T03:27:39;102816.81;;;-0.96;78.38
62708;BME280;48769;51.624;5.886;2023-03-01T03:30:08;102822.00;;;-0.96;78.49
62708;BME280;48769;51.624;5.886;2023-03-01T03:32:36;102822.69;;;-1.03;79.06
62708;BME280;48769;51.624;5.886;2023-03-01T03:35:03;102816.66;;;-1.02;78.48
62708;BME280;48769;51.624;5.886;2023-03-01T03:37:43;102815.72;;;-1.04;79.22
62708;BME280;48769;51.624;5.886;2023-03-01T03:40:29;102811.28;;;-1.08;79.42
62708;BME280;48769;51.624;5.886;2023-03-01T03:42:55;102805.22;;;-1.09;79.22
62708;BME280;48769;51.624;5.886;2023-03-01T03:45:20;102811.97;;;-1.14;79.88
62708;BME280;48769;51.624;5.886;2023-03-01T03:47:45;102808.41;;;-1.19;79.79
62708;BME280;48769;51.624;5.886;2023-03-01T03:50:13;102807.34;;;-1.26;80.04
62708;BME280;48769;51.624;5.886;2023-03-01T03:52:39;102812.44;;;-1.29;80.63
62708;BME280;48769;51.624;5.886;2023-03-01T03:55:05;102805.50;;;-1.30;80.37
62708;BME280;48769;51.624;5.886;2023-03-01T03:57:41;102806.38;;;-1.29;80.45
62708;BME280;48769;51.624;5.886;2023-03-01T04:00:09;102806.31;;;-1.31;80.76
62708;BME280;48769;51.624;5.886;2023-03-01T04:02:44;102807.06;;;-1.35;81.37
62708;BME280;48769;51.624;5.886;2023-03-01T04:05:12;102801.78;;;-1.39;81.18
62708;BME280;48769;51.624;5.886;2023-03-01T04:07:38;102801.88;;;-1.36;81.44
62708;BME280;48769;51.624;5.886;2023-03-01T04:10:05;102800.25;;;-1.33;80.76
62708;BME280;48769;51.624;5.886;2023-03-01T04:12:32;102786.25;;;-1.38;81.52
62708;BME280;48769;51.624;5.886;2023-03-01T04:14:59;102795.75;;;-1.38;81.55
62708;BME280;48769;51.624;5.886;2023-03-01T04:17:25;102794.00;;;-1.39;81.26
62708;BME280;48769;51.624;5.886;2023-03-01T04:19:50;102790.47;;;-1.42;80.90
62708;BME280;48769;51.624;5.886;2023-03-01T04:22:15;102782.56;;;-1.46;81.05
62708;BME280;48769;51.624;5.886;2023-03-01T04:24:43;102782.47;;;-1.49;81.12
62708;BME280;48769;51.624;5.886;2023-03-01T04:27:09;102788.44;;;-1.52;81.88
62708;BME280;48769;51.624;5.886;2023-03-01T04:29:34;102778.06;;;-1.52;81.52
62708;BME280;48769;51.624;5.886;2023-03-01T04:32:00;102772.13;;;-1.49;81.33
62708;BME280;48769;51.624;5.886;2023-03-01T04:34:25;102767.66;;;-1.53;81.48
62708;BME280;48769;51.624;5.886;2023-03-01T04:36:53;102762.38;;;-1.56;81.50
62708;BME280;48769;51.624;5.886;2023-03-01T04:39:18;102766.75;;;-1.55;81.47
62708;BME280;48769;51.624;5.886;2023-03-01T04:41:44;102763.22;;;-1.57;81.39
62708;BME280;48769;51.624;5.886;2023-03-01T04:44:09;102768.41;;;-1.57;82.08
62708;BME280;48769;51.624;5.886;2023-03-01T04:46:35;102764.00;;;-1.60;82.09
62708;BME280;48769;51.624;5.886;2023-03-01T04:49:02;102767.25;;;-1.67;82.09
62708;BME280;48769;51.624;5.886;2023-03-01T04:51:28;102769.81;;;-1.69;82.55
62708;BME280;48769;51.624;5.886;2023-03-01T04:53:54;102766.38;;;-1.68;82.44
62708;BME280;48769;51.624;5.886;2023-03-01T04:56:19;102760.34;;;-1.67;82.52
62708;BME280;48769;51.624;5.886;2023-03-01T04:58:45;102754.25;;;-1.69;82.44
62708;BME280;48769;51.624;5.886;2023-03-01T05:01:12;102756.00;;;-1.68;82.04
62708;BME280;48769;51.624;5.886;2023-03-01T05:03:48;102761.09;;;-1.71;83.00
62708;BME280;48769;51.624;5.886;2023-03-01T05:06:15;102759.34;;;-1.72;82.48
62708;BME280;48769;51.624;5.886;2023-03-01T05:08:41;102756.59;;;-1.76;82.51
62708;BME280;48769;51.624;5.886;2023-03-01T05:11:07;102759.97;;;-1.79;82.43
62708;BME280;48769;51.624;5.886;2023-03-01T05:13:34;102757.38;;;-1.79;82.27
62708;BME280;48769;51.624;5.886;2023-03-01T05:16:01;102754.00;;;-1.78;82.89
62708;BME280;48769;51.624;5.886;2023-03-01T05:18:28;102752.22;;;-1.79;83.18
62708;BME280;48769;51.624;5.886;2023-03-01T05:20:56;102750.47;;;-1.80;83.12
62708;BME280;48769;51.624;5.886;2023-03-01T05:23:26;102745.38;;;-1.77;83.39
62708;BME280;48769;51.624;5.886;2023-03-01T05:25:51;102741.78;;;-1.82;83.41
62708;BME280;48769;51.624;5.886;2023-03-01T05:28:18;102739.91;;;-1.86;83.94
62708;BME280;48769;51.624;5.886;2023-03-01T05:30:44;102732.00;;;-1.91;83.51
62708;BME280;48769;51.624;5.886;2023-03-01T05:33:10;102734.50;;;-1.94;83.86
62708;BME280;48769;51.624;5.886;2023-03-01T05:35:39;102736.31;;;-1.91;83.54
62708;BME280;48769;51.624;5.886;2023-03-01T05:38:06;102727.63;;;-1.93;84.06
62708;BME280;48769;51.624;5.886;2023-03-01T05:40:33;102725.13;;;-1.90;84.03
62708;BME280;48769;51.624;5.886;2023-03-01T05:42:58;102731.22;;;-1.88;83.65
62708;BME280;48769;51.624;5.886;2023-03-01T05:45:25;102723.41;;;-1.90;84.23
62708;BME280;48769;51.624;5.886;2023-03-01T05:47:51;102714.56;;;-1.96;84.12
62708;BME280;48769;51.624;5.886;2023-03-01T05:50:22;102717.06;;;-1.99;84.86
62708;BME280;48769;51.624;5.886;2023-03-01T05:52:50;102722.16;;;-2.02;85.05
62708;BME280;48769;51.624;5.886;2023-03-01T05:55:20;102714.34;;;-2.04;85.41
62708;BME280;48769;51.624;5.886;2023-03-01T05:57:46;102724.75;;;-2.02;84.95
62708;BME280;48769;51.624;5.886;2023-03-01T06:00:13;102727.22;;;-2.05;85.44
62708;BME280;48769;51.624;5.886;2023-03-01T06:02:39;102730.66;;;-2.06;84.88
62708;BME280;48769;51.624;5.886;2023-03-01T06:05:06;102735.00;;;-2.05;84.89
62708;BME280;48769;51.624;5.886;2023-03-01T06:07:32;102731.63;;;-2.03;85.26
62708;BME280;48769;51.624;5.886;2023-03-01T06:09:58;102728.19;;;-2.02;85.54
62708;BME280;48769;51.624;5.886;2023-03-01T06:12:23;102727.31;;;-2.02;85.21
62708;BME280;48769;51.624;5.886;2023-03-01T06:14:48;102734.22;;;-2.03;85.91
62708;BME280;48769;51.624;5.886;2023-03-01T06:17:14;102729.09;;;-2.01;84.91
62708;BME280;48769;51.624;5.886;2023-03-01T06:19:39;102730.75;;;-2.03;84.59
62708;BME280;48769;51.624;5.886;2023-03-01T06:22:05;102730.66;;;-2.06;85.25
62708;BME280;48769;51.624;5.886;2023-03-01T06:24:30;102737.59;;;-2.05;85.44
62708;BME280;48769;51.624;5.886;2023-03-01T06:26:56;102734.09;;;-2.07;85.82
62708;BME280;48769;51.624;5.886;2023-03-01T06:29:21;102729.00;;;-2.04;85.59
62708;BME280;48769;51.624;5.886;2023-03-01T06:31:48;102731.63;;;-2.03;85.41
62708;BME280;48769;51.624;5.886;2023-03-01T06:34:14;102729.09;;;-2.01;85.17
62708;BME280;48769;51.624;5.886;2023-03-01T06:36:40;102733.34;;;-2.03;85.55
62708;BME280;48769;51.624;5.886;2023-03-01T06:39:05;102723.00;;;-2.03;85.68
62708;BME280;48769;51.624;5.886;2023-03-01T06:41:32;102726.53;;;-2.01;85.35
62708;BME280;48769;51.624;5.886;2023-03-01T06:43:58;102729.22;;;-1.97;85.35
62708;BME280;48769;51.624;5.886;2023-03-01T06:46:24;102723.19;;;-1.97;85.63
62708;BME280;48769;51.624;5.886;2023-03-01T06:48:49;102721.59;;;-1.92;85.04
62708;BME280;48769;51.624;5.886;2023-03-01T06:51:14;102725.22;;;-1.87;85.75
62708;BME280;48769;51.624;5.886;2023-03-01T06:53:40;102721.69;;;-1.89;86.04
62708;BME280;48769;51.624;5.886;2023-03-01T06:56:05;102720.81;;;-1.90;85.94
62708;BME280;48769;51.624;5.886;2023-03-01T06:58:31;102722.63;;;-1.87;85.96
62708;BME280;48769;51.624;5.886;2023-03-01T07:00:56;102716.69;;;-1.83;86.60
62708;BME280;48769;51.624;5.886;2023-03-01T07:03:21;102708.25;;;-1.76;86.25
62708;BME280;48769;51.624;5.886;2023-03-01T07:05:51;102717.94;;;-1.70;85.54
62708;BME280;48769;51.624;5.886;2023-03-01T07:08:19;102714.56;;;-1.68;85.73
62708;BME280;48769;51.624;5.886;2023-03-01T07:10:44;102710.31;;;-1.66;85.64
62708;BME280;48769;51.624;5.886;2023-03-01T07:13:10;102722.41;;;-1.65;85.73
62708;BME280;48769;51.624;5.886;2023-03-01T07:15:35;102718.16;;;-1.62;86.26
62708;BME280;48769;51.624;5.886;2023-03-01T07:18:00;102725.19;;;-1.58;86.52
62708;BME280;48769;51.624;5.886;2023-03-01T07:20:26;102729.53;;;-1.57;86.73
62708;BME280;48769;51.624;5.886;2023-03-01T07:22:52;102727.88;;;-1.55;87.10
62708;BME280;48769;51.624;5.886;2023-03-01T07:25:17;102733.97;;;-1.53;87.54
62708;BME280;48769;51.624;5.886;2023-03-01T07:27:43;102740.19;;;-1.47;87.24
62708;BME280;48769;51.624;5.886;2023-03-01T07:30:09;102743.91;;;-1.38;88.02
62708;BME280;48769;51.624;5.886;2023-03-01T07:32:34;102740.78;;;-0.60;86.91
62708;BME280;48769;51.624;5.886;2023-03-01T07:34:59;102726.88;;;0.12;83.44
62708;BME280;48769;51.624;5.886;2023-03-01T07:37:25;102727.50;;;0.00;81.66
62708;BME280;48769;51.624;5.886;2023-03-01T07:39:50;102724.00;;;-0.01;81.29
62708;BME280;48769;51.624;5.886;2023-03-01T07:42:15;102726.22;;;0.63;80.74
62708;BME280;48769;51.624;5.886;2023-03-01T07:44:41;102725.94;;;1.45;77.64
62708;BME280;48769;51.624;5.886;2023-03-01T07:47:06;102713.81;;;2.74;73.22
62708;BME280;48769;51.624;5.886;2023-03-01T07:49:32;102700.78;;;3.78;67.94
62708;BME280;48769;51.624;5.886;2023-03-01T07:51:57;102698.66;;;5.01;64.87
62708;BME280;48769;51.624;5.886;2023-03-01T07:54:22;102695.13;;;5.81;61.10
62708;BME280;48769;51.624;5.886;2023-03-01T07:56:48;102701.78;;;6.74;58.76
62708;BME280;48769;51.624;5.886;2023-03-01T07:59:13;102690.66;;;7.57;56.38
62708;BME280;48769;51.624;5.886;2023-03-01T08:01:38;102681.00;;;7.59;54.17
62708;BME280;48769;51.624;5.886;2023-03-01T08:04:04;102688.28;;;8.16;53.32
62708;BME280;48769;51.624;5.886;2023-03-01T08:06:33;102682.50;;;8.57;51.82
62708;BME280;48769;51.624;5.886;2023-03-01T08:08:58;102684.50;;;9.02;50.35
62708;BME280;48769;51.624;5.886;2023-03-01T08:11:24;102685.56;;;9.44;49.77
62708;BME280;48769;51.624;5.886;2023-03-01T08:13:49;102683.38;;;9.68;47.80
62708;BME280;48769;51.624;5.886;2023-03-01T08:16:15;102681.41;;;10.27;47.05
62708;BME280;48769;51.624;5.886;2023-03-01T08:18:41;102678.47;;;10.39;45.66
62708;BME280;48769;51.624;5.886;2023-03-01T08:21:10;102677.94;;;10.22;44.43
62708;BME280;48769;51.624;5.886;2023-03-01T08:23:36;102681.72;;;10.91;44.49
62708;BME280;48769;51.624;5.886;2023-03-01T08:26:10;102667.50;;;11.31;41.99
62708;BME280;48769;51.624;5.886;2023-03-01T08:28:37;102669.41;;;12.25;41.24
62708;BME280;48769;51.624;5.886;2023-03-01T08:31:03;102658.75;;;12.84;40.11
62708;BME280;48769;51.624;5.886;2023-03-01T08:33:37;102662.03;;;12.65;38.68
62708;BME280;48769;51.624;5.886;2023-03-01T08:36:06;102663.94;;;12.59;39.69
62708;BME280;48769;51.624;5.886;2023-03-01T08:38:32;102660.09;;;12.96;37.82
62708;BME280;48769;51.624;5.886;2023-03-01T08:41:00;102655.13;;;12.29;38.75
62708;BME280;48769;51.624;5.886;2023-03-01T08:43:25;102647.22;;;12.28;38.85
62708;BME280;48769;51.624;5.886;2023-03-01T08:45:51;102650.63;;;12.31;39.12
62708;BME280;48769;51.624;5.886;2023-03-01T08:48:16;102651.13;;;12.46;38.16
62708;BME280;48769;51.624;5.886;2023-03-01T08:50:41;102652.41;;;13.15;36.92
62708;BME280;48769;51.624;5.886;2023-03-01T08:53:07;102638.59;;;14.07;35.74
62708;BME280;48769;51.624;5.886;2023-03-01T08:55:32;102648.50;;;14.25;35.19
62708;BME280;48769;51.624;5.886;2023-03-01T08:57:57;102649.50;;;14.90;33.80
62708;BME280;48769;51.624;5.886;2023-03-01T09:00:24;102632.06;;;15.26;33.09
62708;BME280;48769;51.624;5.886;2023-03-01T09:02:50;102631.22;;;15.46;32.61
62708;BME280;48769;51.624;5.886;2023-03-01T09:05:15;102636.09;;;16.35;32.29
62708;BME280;48769;51.624;5.886;2023-03-01T09:07:40;102634.19;;;15.99;30.78
62708;BME280;48769;51.624;5.886;2023-03-01T09:10:06;102636.16;;;16.70;30.72
62708;BME280;48769;51.624;5.886;2023-03-01T09:12:34;102633.94;;;16.79;30.17
62708;BME280;48769;51.624;5.886;2023-03-01T09:14:59;102634.28;;;16.17;30.22
62708;BME280;48769;51.624;5.886;2023-03-01T09:17:25;102642.25;;;15.36;30.77
62708;BME280;48769;51.624;5.886;2023-03-01T09:19:50;102629.75;;;14.76;31.41
62708;BME280;48769;51.624;5.886;2023-03-01T09:22:15;102629.91;;;14.02;32.58
62708;BME280;48769;51.624;5.886;2023-03-01T09:24:41;102634.16;;;14.30;33.08
62708;BME280;48769;51.624;5.886;2023-03-01T09:27:06;102629.97;;;14.46;32.61
62708;BME280;48769;51.624;5.886;2023-03-01T09:29:37;102636.69;;;14.78;32.68
62708;BME280;48769;51.624;5.886;2023-03-01T09:32:02;102631.16;;;13.68;33.04
62708;BME280;48769;51.624;5.886;2023-03-01T09:34:27;102632.19;;;12.28;34.96
62708;BME280;48769;51.624;5.886;2023-03-01T09:36:53;102625.81;;;12.90;34.50
62708;BME280;48769;51.624;5.886;2023-03-01T09:39:18;102629.00;;;13.01;34.96
62708;BME280;48769;51.624;5.886;2023-03-01T09:44:48;102617.19;;;11.99;35.09
62708;BME280;48769;51.624;5.886;2023-03-01T09:47:24;102607.88;;;11.52;35.85
62708;BME280;48769;51.624;5.886;2023-03-01T09:50:18;102609.03;;;12.05;35.47
62708;BME280;48769;51.624;5.886;2023-03-01T09:53:01;102612.16;;;11.57;36.38
62708;BME280;48769;51.624;5.886;2023-03-01T09:55:34;102611.03;;;10.97;37.58
62708;BME280;48769;51.624;5.886;2023-03-01T09:58:28;102609.44;;;11.59;36.80
62708;BME280;48769;51.624;5.886;2023-03-01T10:00:59;102598.50;;;11.06;36.48
62708;BME280;48769;51.624;5.886;2023-03-01T10:03:34;102596.91;;;10.24;37.46
62708;BME280;48769;51.624;5.886;2023-03-01T10:06:10;102598.88;;;9.71;39.80
62708;BME280;48769;51.624;5.886;2023-03-01T10:11:17;102590.56;;;8.96;39.98
62708;BME280;48769;51.624;5.886;2023-03-01T10:17:00;102582.19;;;10.12;39.06
62708;BME280;48769;51.624;5.886;2023-03-01T10:19:39;102572.88;;;9.51;39.93
62708;BME280;48769;51.624;5.886;2023-03-01T10:22:22;102562.88;;;9.23;39.52
62708;BME280;48769;51.624;5.886;2023-03-01T10:24:51;102568.28;;;9.60;39.40
62708;BME280;48769;51.624;5.886;2023-03-01T10:27:25;102572.38;;;10.58;37.31
62708;BME280;48769;51.624;5.886;2023-03-01T10:32:19;102560.72;;;9.87;38.77
62708;BME280;48769;51.624;5.886;2023-03-01T10:34:46;102550.88;;;9.05;40.06
62708;BME280;48769;51.624;5.886;2023-03-01T10:37:20;102547.97;;;9.21;40.31
62708;BME280;48769;51.624;5.886;2023-03-01T10:39:58;102547.00;;;9.25;39.69
62708;BME280;48769;51.624;5.886;2023-03-01T10:42:31;102544.56;;;8.64;40.90
62708;BME280;48769;51.624;5.886;2023-03-01T10:45:11;102551.19;;;9.35;40.08
62708;BME280;48769;51.624;5.886;2023-03-01T10:47:40;102545.25;;;10.49;37.31
62708;BME280;48769;51.624;5.886;2023-03-01T10:50:18;102537.44;;;10.45;37.34
62708;BME280;48769;51.624;5.886;2023-03-01T10:52:56;102536.38;;;10.53;37.26
62708;BME280;48769;51.624;5.886;2023-03-01T10:55:38;102544.13;;;9.37;38.65
62708;BME280;48769;51.624;5.886;2023-03-01T11:01:27;102550.88;;;9.07;40.51
62708;BME280;48769;51.624;5.886;2023-03-01T11:03:45;102561.41;;;9.05;40.37
62708;BME280;48769;51.624;5.886;2023-03-01T11:08:45;102546.06;;;10.13;39.21
62708;BME280;48769;51.624;5.886;2023-03-01T11:11:33;102545.47;;;11.12;36.56
62708;BME280;48769;51.624;5.886;2023-03-01T11:14:03;102560.75;;;10.65;36.81
62708;BME280;48769;51.624;5.886;2023-03-01T11:16:39;102549.66;;;10.50;37.68
62708;BME280;48769;51.624;5.886;2023-03-01T11:21:40;102542.34;;;9.82;38.82
62708;BME280;48769;51.624;5.886;2023-03-01T11:24:13;102532.47;;;9.49;39.36
62708;BME280;48769;51.624;5.886;2023-03-01T11:26:42;102529.81;;;9.50;39.74
62708;BME280;48769;51.624;5.886;2023-03-01T11:29:38;102532.03;;;9.27;39.85
62708;BME280;48769;51.624;5.886;2023-03-01T11:32:06;102539.13;;;10.09;39.35
62708;BME280;48769;51.624;5.886;2023-03-01T11:37:30;102530.16;;;10.55;37.77
62708;BME280;48769;51.624;5.886;2023-03-01T11:40:33;102537.38;;;10.48;37.94
62708;BME280;48769;51.624;5.886;2023-03-01T11:50:56;102515.84;;;8.99;39.25
62708;BME280;48769;51.624;5.886;2023-03-01T11:56:12;102524.41;;;9.56;39.08
62708;BME280;48769;51.624;5.886;2023-03-01T12:01:24;102519.66;;;10.13;38.90
62708;BME280;48769;51.624;5.886;2023-03-01T12:04:18;102512.59;;;9.74;39.02
62708;BME280;48769;51.624;5.886;2023-03-01T12:06:50;102505.34;;;9.84;39.20
62708;BME280;48769;51.624;5.886;2023-03-01T12:09:36;102513.38;;;10.18;39.39
62708;BME280;48769;51.624;5.886;2023-03-01T12:14:52;102508.00;;;11.89;36.05
62708;BME280;48769;51.624;5.886;2023-03-01T12:17:31;102496.97;;;12.58;34.62
62708;BME280;48769;51.624;5.886;2023-03-01T12:20:16;102489.41;;;12.72;34.47
62708;BME280;48769;51.624;5.886;2023-03-01T12:25:37;102491.66;;;12.58;33.64
62708;BME280;48769;51.624;5.886;2023-03-01T12:31:12;102484.63;;;12.57;33.31
62708;BME280;48769;51.624;5.886;2023-03-01T12:37:09;102471.94;;;12.92;34.15
62708;BME280;48769;51.624;5.886;2023-03-01T12:42:58;102463.03;;;14.10;31.03
62708;BME280;48769;51.624;5.886;2023-03-01T12:45:54;102468.81;;;12.80;32.18
62708;BME280;48769;51.624;5.886;2023-03-01T12:48:37;102461.69;;;12.29;33.78
62708;BME280;48769;51.624;5.886;2023-03-01T12:51:13;102458.38;;;11.95;33.20
62708;BME280;48769;51.624;5.886;2023-03-01T12:53:46;102449.09;;;12.36;33.37
62708;BME280;48769;51.624;5.886;2023-03-01T12:56:16;102438.66;;;12.58;33.71
62708;BME280;48769;51.624;5.886;2023-03-01T13:02:00;102431.25;;;12.41;34.66
62708;BME280;48769;51.624;5.886;2023-03-01T13:04:41;102431.81;;;13.01;33.95
62708;BME280;48769;51.624;5.886;2023-03-01T13:07:20;102420.50;;;13.19;33.23
62708;BME280;48769;51.624;5.886;2023-03-01T13:10:11;102423.31;;;13.63;31.81
62708;BME280;48769;51.624;5.886;2023-03-01T13:17:53;102407.38;;;13.63;31.55
62708;BME280;48769;51.624;5.886;2023-03-01T13:20:21;102410.19;;;14.67;31.23
62708;BME280;48769;51.624;5.886;2023-03-01T13:23:00;102403.53;;;15.16;30.00
62708;BME280;48769;51.624;5.886;2023-03-01T13:25:26;102392.75;;;15.38;30.07
62708;BME280;48769;51.624;5.886;2023-03-01T13:28:35;102397.00;;;14.01;30.03
62708;BME280;48769;51.624;5.886;2023-03-01T13:30:56;102387.66;;;14.13;30.73
62708;BME280;48769;51.624;5.886;2023-03-01T13:35:57;102378.66;;;13.95;31.27
62708;BME280;48769;51.624;5.886;2023-03-01T13:38:37;102367.72;;;13.80;31.16
62708;BME280;48769;51.624;5.886;2023-03-01T13:41:04;102366.31;;;13.72;31.83
62708;BME280;48769;51.624;5.886;2023-03-01T13:43:32;102360.63;;;13.12;31.71
62708;BME280;48769;51.624;5.886;2023-03-01T13:45:59;102362.03;;;13.46;32.38
62708;BME280;48769;51.624;5.886;2023-03-01T13:48:28;102355.97;;;12.47;32.58
62708;BME280;48769;51.624;5.886;2023-03-01T13:50:58;102358.31;;;12.04;33.31
62708;BME280;48769;51.624;5.886;2023-03-01T13:53:29;102350.66;;;12.22;33.47
62708;BME280;48769;51.624;5.886;2023-03-01T13:56:01;102342.06;;;11.88;33.32
62708;BME280;48769;51.624;5.886;2023-03-01T13:58:33;102335.41;;;11.75;33.60
62708;BME280;48769;51.624;5.886;2023-03-01T14:01:07;102330.56;;;11.33;34.16
62708;BME280;48769;51.624;5.886;2023-03-01T14:03:40;102333.19;;;11.33;34.33
62708;BME280;48769;51.624;5.886;2023-03-01T14:06:14;102341.88;;;11.38;35.37
62708;BME280;48769;51.624;5.886;2023-03-01T14:08:44;102331.66;;;10.67;35.78
62708;BME280;48769;51.624;5.886;2023-03-01T14:16:43;102327.47;;;9.91;36.69